Time;durP1;ratioP1;P1;durP2;ratioP2;P2;SDS_P1;SDS_P2;PMS_P1;PMS_P2;Temp;Humidity;BMP_temperature;BMP_pressure;BME280_temperature;BME280_humidity;BME280_pressure;Samples;Min_cycle;Max_cycle;Signal;HPM_P1;HPM_P2
2022/01/24 16:32:03;;;;;;;2.17;1.07;;;;;;;17.41;42.50;102097.69;10202925;27;44538;-77
2022/01/24 16:36:55;;;;;;;5.70;1.40;;;;;;;17.70;41.70;102092.97;10189428;27;65026;-77
2022/01/24 16:41:55;;;;;;;2.63;0.90;;;;;;;17.67;41.65;102098.09;10203609;27;64908;-80
2022/01/24 16:47:03;;;;;;;6.40;1.35;;;;;;;17.82;41.09;102088.16;10202386;27;65857;-77
2022/01/24 16:51:57;;;;;;;3.08;1.10;;;;;;;17.57;41.56;102086.94;10202049;27;66375;-70
2022/01/24 16:56:49;;;;;;;2.97;1.10;;;;;;;17.58;41.46;102089.44;10200910;27;66246;-70
2022/01/24 17:01:42;;;;;;;1.65;1.00;;;;;;;17.60;41.39;102086.47;10201241;27;66391;-69
2022/01/24 17:06:34;;;;;;;1.85;1.00;;;;;;;17.65;41.29;102097.53;10199737;27;66389;-70
2022/01/24 17:11:28;;;;;;;2.22;0.90;;;;;;;17.60;41.39;102106.47;10201560;27;66394;-70
2022/01/24 17:16:22;;;;;;;3.70;1.15;;;;;;;17.65;41.53;102105.75;10172155;27;65614;-69
2022/01/24 17:21:15;;;;;;;1.48;0.90;;;;;;;17.66;41.23;102102.75;10192607;27;66391;-70
2022/01/24 17:26:07;;;;;;;2.53;1.10;;;;;;;17.63;41.23;102094.22;10196083;27;66315;-69
2022/01/24 17:31:00;;;;;;;3.47;0.77;;;;;;;17.64;41.31;102099.44;10198862;27;66315;-69
2022/01/24 17:35:52;;;;;;;1.80;1.10;;;;;;;17.63;41.33;102097.78;10200061;27;65608;-69
2022/01/24 17:40:44;;;;;;;5.03;1.30;;;;;;;17.67;41.36;102104.44;10185450;27;66403;-71
2022/01/24 17:45:37;;;;;;;2.45;0.98;;;;;;;17.69;41.26;102099.53;10172347;27;64551;-71
2022/01/24 17:50:31;;;;;;;4.15;1.23;;;;;;;17.67;41.44;102098.94;10171165;27;65614;-70
2022/01/24 17:55:26;;;;;;;2.33;1.05;;;;;;;17.72;41.26;102092.69;10171494;27;65265;-71
2022/01/24 18:00:19;;;;;;;6.60;1.45;;;;;;;17.71;41.52;102093.78;10167402;28;66111;-70
2022/01/24 18:05:12;;;;;;;5.35;1.20;;;;;;;17.80;41.71;102103.22;10161860;27;65482;-69
2022/01/24 18:10:06;;;;;;;6.03;1.63;;;;;;;18.05;41.44;102099.97;10156034;27;65636;-70
2022/01/24 18:14:58;;;;;;;5.88;1.80;;;;;;;17.81;41.94;102108.47;10170074;27;66466;-70
2022/01/24 18:19:50;;;;;;;8.38;1.65;;;;;;;17.89;41.62;102106.34;10169941;27;65486;-70
2022/01/24 18:24:42;;;;;;;5.47;1.50;;;;;;;17.89;41.63;102098.13;10169321;27;66482;-70
2022/01/24 18:29:35;;;;;;;3.10;1.15;;;;;;;17.92;41.47;102106.69;10168893;27;66473;-70
2022/01/24 18:34:27;;;;;;;4.95;1.20;;;;;;;17.89;41.67;102106.34;10168883;27;66258;-71
2022/01/24 18:39:19;;;;;;;6.30;1.40;;;;;;;18.02;41.37;102112.28;10167424;27;66365;-69
2022/01/24 18:44:12;;;;;;;4.78;1.40;;;;;;;17.98;41.52;102119.38;10170101;27;66357;-69
2022/01/24 18:49:06;;;;;;;6.82;1.60;;;;;;;18.10;41.58;102111.00;10167311;27;66154;-72
2022/01/24 18:53:58;;;;;;;10.30;1.77;;;;;;;18.13;42.10;102113.25;10168594;27;65435;-71
2022/01/24 18:58:50;;;;;;;8.43;1.50;;;;;;;18.00;42.53;102119.97;10170691;27;65619;-72
2022/01/24 19:03:42;;;;;;;7.45;1.70;;;;;;;17.92;42.70;102114.94;10159505;28;65108;-72
2022/01/24 19:08:36;;;;;;;7.85;1.60;;;;;;;17.91;42.94;102109.69;10168074;27;66316;-71
2022/01/24 19:13:28;;;;;;;5.75;1.75;;;;;;;17.91;43.02;102112.44;10168854;28;66720;-71
2022/01/24 19:18:25;;;;;;;6.95;1.52;;;;;;;17.89;43.30;102107.19;10171429;27;65643;-71
2022/01/24 19:23:20;;;;;;;9.32;1.83;;;;;;;17.96;43.19;102112.47;10167501;27;66335;-70
2022/01/24 19:28:14;;;;;;;5.82;1.67;;;;;;;17.95;43.28;102116.31;10167290;27;66363;-70
2022/01/24 19:33:06;;;;;;;6.22;1.70;;;;;;;17.96;43.19;102117.97;10167028;27;66467;-70
2022/01/24 19:37:59;;;;;;;6.70;1.50;;;;;;;17.93;43.45;102124.00;10165250;27;65913;-69
2022/01/24 19:42:51;;;;;;;4.88;1.63;;;;;;;17.92;43.62;102122.31;10168745;27;66234;-69
2022/01/24 19:47:44;;;;;;;7.75;2.00;;;;;;;17.93;43.77;102129.47;10166799;27;66258;-69
2022/01/24 19:52:36;;;;;;;5.40;1.90;;;;;;;17.93;43.77;102127.56;10166148;27;66326;-68
2022/01/24 19:57:35;;;;;;;5.20;2.20;;;;;;;17.91;43.78;102126.97;10166790;27;65530;-69
2022/01/24 20:02:27;;;;;;;4.00;1.60;;;;;;;17.95;43.89;102122.63;10166599;27;65777;-69
2022/01/24 20:07:20;;;;;;;5.47;2.00;;;;;;;17.93;44.08;102124.81;10165672;27;65516;-69
2022/01/24 20:12:12;;;;;;;3.50;1.67;;;;;;;17.99;43.98;102128.47;10165982;27;66219;-70
2022/01/24 20:17:05;;;;;;;4.85;2.28;;;;;;;17.95;44.14;102121.81;10164799;27;66347;-69
2022/01/24 20:21:57;;;;;;;2.88;1.50;;;;;;;17.96;44.11;102132.53;10165456;27;66363;-69
2022/01/24 20:26:51;;;;;;;8.48;1.83;;;;;;;17.95;44.34;102130.03;10165168;27;66301;-69
2022/01/24 20:31:43;;;;;;;7.93;2.10;;;;;;;17.97;44.23;102134.19;10157477;28;66767;-70
2022/01/24 20:36:35;;;;;;;5.85;2.40;;;;;;;18.01;44.02;102131.75;10167326;27;66552;-69
2022/01/24 20:41:27;;;;;;;5.68;1.80;;;;;;;17.97;44.13;102133.34;10164917;27;66776;-69
2022/01/24 20:46:20;;;;;;;6.25;2.22;;;;;;;17.97;44.22;102131.44;10164909;27;65665;-68
2022/01/24 20:51:14;;;;;;;4.35;2.40;;;;;;;17.99;44.11;102133.94;10164454;27;66330;-69
2022/01/24 20:56:06;;;;;;;5.55;2.22;;;;;;;18.00;43.96;102135.59;10166304;27;66527;-69
2022/01/24 21:00:58;;;;;;;5.88;2.40;;;;;;;18.00;43.91;102130.13;10165669;27;66256;-70
2022/01/24 21:05:51;;;;;;;5.18;2.15;;;;;;;18.01;43.94;102134.50;10166590;27;66073;-71
2022/01/24 21:10:44;;;;;;;5.72;2.17;;;;;;;18.01;43.81;102140.81;10164535;27;65651;-69
2022/01/24 21:15:36;;;;;;;5.70;2.20;;;;;;;18.04;43.71;102136.75;10167857;27;66305;-70
2022/01/24 21:20:28;;;;;;;5.53;2.08;;;;;;;18.04;43.58;102136.75;10170944;27;66333;-70
2022/01/24 21:25:21;;;;;;;4.95;2.20;;;;;;;18.06;43.51;102135.41;10173134;27;65499;-70
2022/01/24 21:30:14;;;;;;;4.50;2.17;;;;;;;18.18;43.30;102132.53;10170097;27;65572;-69
2022/01/24 21:40:19;;;;;;;5.93;2.58;;;;;;;18.34;43.12;102144.53;10165307;27;67020;-68
2022/01/24 21:45:12;;;;;;;4.13;2.20;;;;;;;18.18;43.50;102140.78;10170440;27;66745;-68
